Latest Weather Observations for Edithburgh

IDS60801

Issued at 3:41 pm CDT Thursday 28 January 2021 (issued every 10 minutes, with the page automatically refreshed every 10 minutes)

About weather observations | Map of weather stations | Latest weather observations for SA | Other Formats
Station Details ID: 022046 Name: EDITHBURGH Lat: -35.11 Lon: 137.74 Height: 6.0 m
Data from the previous 72 hours. | See also: Recent months at Edithburgh
Date/Time
CDT
Temp
°C
App
Temp
°C
Dew
Point
°C
Rel
Hum
%
Delta-T
°C
Wind Press
QNH
hPa
Press
MSL
hPa
Rain since
9am
mm
Dir  Spd
km/h
Gust
km/h
Spd
kts
Gust
kts
28/03:30pm 22.3 21.3 15.6 66 4.0 SSW 15 19 8 10 1009.7 1009.7 0.0
28/03:00pm 23.1 22.2 15.9 64 4.4 SSW 15 19 8 10 1010.3 1010.3 0.0
28/02:30pm 22.8 22.7 14.9 61 4.7 S 9 13 5 7 1010.6 1010.6 0.0
28/02:00pm 22.8 22.3 13.8 57 5.2 S 9 13 5 7 1010.7 1010.7 0.0
28/01:30pm 22.1 21.4 15.5 66 3.9 SSE 13 17 7 9 1010.3 1010.3 0.0
28/01:00pm 22.1 21.7 15.2 65 4.1 SSE 11 15 6 8 1011.1 1011.1 0.0
28/12:30pm 23.1 21.9 12.7 52 6.0 SSE 11 15 6 8 1011.3 1011.3 0.0
28/12:00pm 22.6 20.9 14.7 61 4.7 SE 17 20 9 11 1011.0 1011.0 0.0
28/11:30am 22.4 21.4 14.5 61 4.7 SE 13 17 7 9 1011.3 1011.3 0.0
28/11:00am 22.3 21.6 14.2 60 4.7 SE 11 17 6 9 1012.0 1012.0 0.0
28/10:30am 23.0 21.6 13.5 55 5.5 ESE 13 17 7 9 1012.1 1012.1 0.0
28/10:00am 22.4 21.0 14.5 61 4.6 ESE 15 20 8 11 1011.4 1011.4 0.0
28/09:30am 21.6 20.6 14.5 64 4.2 ESE 13 17 7 9 1011.4 1011.4 0.0
28/09:00am 21.6 22.5 15.0 66 3.9 SSE 4 9 2 5 1012.0 1012.0 0.0
28/08:30am 21.4 20.8 14.6 65 4.0 ESE 11 15 6 8 1011.3 1011.3 0.0
28/08:00am 20.6 18.7 14.3 67 3.7 ESE 17 24 9 13 1010.8 1010.8 0.0
28/07:30am 20.0 17.6 13.9 68 3.5 ESE 19 24 10 13 1010.9 1010.9 0.0
28/07:00am 19.5 17.1 13.7 69 3.3 ESE 19 24 10 13 1011.4 1011.4 0.0
28/06:30am 19.6 17.7 14.2 71 3.1 ESE 17 20 9 11 1011.0 1011.0 0.0
28/06:00am 19.5 17.9 15.0 75 2.6 ESE 17 20 9 11 1010.8 1010.8 0.0
28/05:30am 19.4 18.4 15.7 79 2.2 ESE 15 20 8 11 1010.5 1010.5 0.0
28/05:00am 19.1 18.3 16.0 82 1.8 SE 15 19 8 10 1010.6 1010.6 0.0
28/04:30am 19.1 17.5 16.0 82 1.8 SE 19 22 10 12 1010.5 1010.5 0.0
28/04:00am 18.9 17.3 16.0 83 1.7 SE 19 24 10 13 1010.6 1010.6 0.0
28/03:30am 18.9 16.5 15.4 80 2.1 SE 22 30 12 16 1010.5 1010.5 0.0
28/03:00am 18.9 16.4 15.2 79 2.2 SE 22 32 12 17 1010.5 1010.5 0.0
28/02:30am 18.9 16.0 15.2 79 2.2 ESE 24 30 13 16 1010.6 1010.6 0.0
28/02:00am 18.9 15.8 14.4 75 2.6 SE 24 32 13 17 1010.8 1010.8 0.0
28/01:30am 19.0 16.6 14.5 75 2.6 SE 20 28 11 15 1011.3 1011.3 0.0
28/01:00am 19.1 16.5 14.8 76 2.5 SE 22 28 12 15 1011.2 1011.2 0.0
28/12:30am 19.0 16.6 14.5 75 2.6 SE 20 28 11 15 1011.7 1011.7 0.0
28/12:00am 18.9 16.2 14.6 76 2.5 SE 22 28 12 15 1011.8 1011.8 0.0
 
Date/Time
CDT
Temp
°C
App
Temp
°C
Dew
Point
°C
Rel
Hum
%
Delta-T
°C
Wind Press
QNH
hPa
Press
MSL
hPa
Rain since
9am
mm
Dir  Spd
km/h
Gust
km/h
Spd
kts
Gust
kts
27/11:30pm 18.7 14.8 14.4 76 2.5 SE 28 35 15 19 1011.8 1011.8 0.0
27/11:00pm 18.6 15.2 14.7 78 2.3 SSE 26 33 14 18 1012.5 1012.5 0.0
27/10:30pm 18.5 14.3 14.6 78 2.3 SSE 30 39 16 21 1012.6 1012.6 0.0
27/10:00pm 18.6 14.7 14.5 77 2.4 SSE 28 37 15 20 1012.6 1012.6 0.0
27/09:30pm 18.7 14.9 14.6 77 2.4 SSE 28 33 15 18 1012.0 1012.0 0.0
27/09:00pm 18.7 14.4 14.4 76 2.5 SSE 30 39 16 21 1011.9 1011.9 0.0
27/08:30pm 18.7 13.6 13.6 72 2.9 SSE 33 41 18 22 1011.9 1011.9 0.0
27/08:00pm 18.9 13.7 13.3 70 3.2 SSE 33 44 18 24 1011.3 1011.3 0.0
27/07:30pm 19.4 13.9 13.6 69 3.3 SSE 35 44 19 24 1010.9 1010.9 0.0
27/07:00pm 19.4 14.7 13.3 68 3.5 SSE 30 39 16 21 1011.1 1011.1 0.0
27/06:30pm 19.7 14.3 12.7 64 3.9 SSE 33 41 18 22 1011.0 1011.0 0.0
27/06:00pm 19.6 14.4 13.5 68 3.5 SSE 33 43 18 23 1010.7 1010.7 0.0
27/05:30pm 20.7 15.9 12.9 61 4.4 SSE 30 39 16 21 1011.1 1011.1 0.0
27/05:00pm 20.7 15.8 12.7 60 4.5 SSE 30 37 16 20 1011.5 1011.5 0.0
27/04:30pm 21.1 16.2 12.5 58 4.9 SSE 30 37 16 20 1011.7 1011.7 0.0
27/04:00pm 21.7 17.1 12.3 55 5.3 SSE 28 35 15 19 1011.7 1011.7 0.0
27/03:30pm 23.0 17.8 10.4 45 6.9 SE 28 35 15 19 1011.7 1011.7 0.0
27/03:00pm 22.5 17.4 10.6 47 6.5 SE 28 35 15 19 1011.9 1011.9 0.0
27/02:30pm 22.2 17.0 10.4 47 6.5 SE 28 33 15 18 1012.2 1012.2 0.0
27/02:00pm 21.5 16.7 10.3 49 6.1 SE 26 32 14 17 1012.5 1012.5 0.0
27/01:30pm 21.6 17.0 11.0 51 5.8 SE 26 33 14 18 1012.5 1012.5 0.0
27/01:00pm 21.4 16.8 10.9 51 5.8 SE 26 33 14 18 1012.8 1012.8 0.0
27/12:30pm 21.0 16.0 10.8 52 5.6 ESE 28 33 15 18 1012.9 1012.9 0.0
27/12:00pm 20.3 15.1 10.1 52 5.5 ESE 28 35 15 19 1013.0 1013.0 0.0
27/11:30am 20.0 14.8 10.4 54 5.2 ESE 28 35 15 19 1012.8 1012.8 0.0
27/11:00am 19.2 13.7 10.5 57 4.7 ESE 30 37 16 20 1013.1 1013.1 0.0
27/10:30am 19.2 14.2 11.0 59 4.5 ESE 28 35 15 19 1013.3 1013.3 0.0
27/10:00am 17.7 12.1 10.3 62 3.9 ESE 30 41 16 22 1013.6 1013.6 0.0
27/09:30am 17.4 12.4 10.8 65 3.5 ESE 28 37 15 20 1013.6 1013.6 0.0
27/09:00am 16.8 11.8 11.1 69 3.1 ESE 28 37 15 20 1013.3 1013.3 0.0
27/08:30am 16.3 10.4 10.6 69 3.0 ESE 32 43 17 23 1013.1 1013.1 0.0
27/08:00am 16.1 10.7 10.8 71 2.8 ESE 30 39 16 21 1012.8 1012.8 0.0
27/07:30am 16.1 10.5 10.2 68 3.1 ESE 30 39 16 21 1012.5 1012.5 0.0
27/07:00am 16.1 10.2 10.4 69 3.0 ESE 32 41 17 22 1012.4 1012.4 0.0
27/06:30am 16.4 10.5 10.5 68 3.1 ESE 32 41 17 22 1012.1 1012.1 0.0
27/06:00am 16.7 11.9 11.8 73 2.7 ESE 28 39 15 21 1011.5 1011.5 0.0
27/05:30am 16.8 12.1 12.1 74 2.6 ESE 28 37 15 20 1011.3 1011.3 0.0
27/05:00am 16.9 11.9 12.2 74 2.6 ESE 30 41 16 22 1011.1 1011.1 0.0
27/04:30am 17.1 12.2 12.6 75 2.5 ESE 30 43 16 23 1011.3 1011.3 0.0
27/04:00am 17.2 12.0 12.7 75 2.5 SE 32 43 17 23 1011.1 1011.1 0.0
27/03:30am 17.2 11.6 12.1 72 2.8 SE 33 43 18 23 1011.1 1011.1 0.0
27/03:00am 17.1 12.0 12.0 72 2.8 SE 30 39 16 21 1011.0 1011.0 0.0
27/02:30am 17.0 11.8 11.7 71 2.9 SE 30 41 16 22 1011.0 1011.0 0.0
27/02:00am 17.0 11.8 11.5 70 3.0 SE 30 41 16 22 1011.4 1011.4 0.0
27/01:30am 17.0 11.8 11.7 71 2.9 SE 30 39 16 21 1011.2 1011.2 0.0
27/01:00am 17.1 12.3 11.8 71 2.9 SE 28 39 15 21 1011.5 1011.5 0.0
27/12:30am 17.0 11.4 11.5 70 3.0 SE 32 41 17 22 1011.3 1011.3 0.0
27/12:00am 17.2 11.5 11.9 71 2.9 SE 33 43 18 23 1011.1 1011.1 0.0
 
Date/Time
CDT
Temp
°C
App
Temp
°C
Dew
Point
°C
Rel
Hum
%
Delta-T
°C
Wind Press
QNH
hPa
Press
MSL
hPa
Rain since
9am
mm
Dir  Spd
km/h
Gust
km/h
Spd
kts
Gust
kts
26/11:30pm 17.4 12.4 12.3 72 2.8 SE 30 39 16 21 1011.1 1011.1 0.0
26/11:00pm 17.4 11.8 12.1 71 2.9 SE 33 41 18 22 1011.0 1011.0 0.0
26/10:30pm 17.6 12.6 12.1 70 3.0 SE 30 39 16 21 1011.2 1011.2 0.0
26/10:00pm 17.7 12.6 11.9 69 3.2 SE 30 39 16 21 1010.7 1010.7 0.0
26/09:30pm 17.8 13.9 12.0 69 3.2 SE 24 35 13 19 1010.6 1010.6 0.0
26/09:00pm 17.8 13.0 11.6 67 3.4 SSE 28 35 15 19 1010.4 1010.4 0.0
26/08:30pm 17.9 13.1 11.5 66 3.5 SSE 28 35 15 19 1010.0 1010.0 0.0
26/08:00pm 18.4 13.4 11.0 62 4.0 SSE 28 37 15 20 1009.6 1009.6 0.0
26/07:30pm 19.0 14.0 10.8 59 4.4 SSE 28 33 15 18 1009.2 1009.2 0.0
26/07:00pm 19.5 15.2 10.8 57 4.7 SSE 24 33 13 18 1009.1 1009.1 0.0
26/06:30pm 19.9 15.8 11.4 58 4.7 SSE 24 33 13 18 1008.9 1008.9 0.0
26/06:00pm 19.9 14.9 11.1 57 4.8 SSE 28 33 15 18 1008.5 1008.5 0.0
26/05:30pm 20.6 16.0 11.2 55 5.2 SSE 26 35 14 19 1008.4 1008.4 0.0
26/05:00pm 20.7 16.0 10.8 53 5.4 SE 26 33 14 18 1008.4 1008.4 0.0
26/04:30pm 21.1 16.8 10.9 52 5.6 SSE 24 32 13 17 1008.4 1008.4 0.0
26/04:00pm 21.1 16.7 10.3 50 5.9 SSE 24 32 13 17 1008.4 1008.4 0.0
26/03:30pm 21.2 16.7 10.1 49 6.0 SSE 24 32 13 17 1008.5 1008.5 0.0
26/03:00pm 21.8 17.5 10.9 50 6.0 SSE 24 32 13 17 1008.4 1008.4 0.0
26/02:30pm 21.1 16.4 10.6 51 5.7 SSE 26 30 14 16 1008.2 1008.2 0.0
26/02:00pm 20.6 16.4 11.2 55 5.2 SSE 24 30 13 16 1008.3 1008.3 0.0
26/01:30pm 21.4 17.2 11.1 52 5.7 SSE 24 30 13 16 1008.4 1008.4 0.0
26/01:00pm 20.5 16.3 11.2 55 5.1 SSE 24 32 13 17 1008.4 1008.4 0.0
26/12:30pm 20.6 16.4 11.2 55 5.2 SSE 24 32 13 17 1008.4 1008.4 0.0
26/12:00pm 20.1 15.4 10.5 54 5.2 SSE 26 35 14 19 1008.1 1008.1 0.0
26/11:30am 20.3 15.5 11.8 58 4.7 SSE 28 35 15 19 1008.2 1008.2 0.0
26/11:00am 20.4 16.4 12.9 62 4.3 S 26 33 14 18 1007.8 1007.8 0.0
26/10:30am 19.7 15.5 13.4 67 3.6 S 28 35 15 19 1007.5 1007.5 0.0
26/10:00am 19.2 15.3 12.2 64 3.9 S 24 30 13 16 1007.6 1007.6 0.0
26/09:30am 18.7 14.6 12.7 68 3.4 SSW 26 33 14 18 1007.4 1007.4 0.0
26/09:00am 18.3 14.6 12.7 70 3.1 SSW 24 33 13 18 1007.1 1007.1 9.6
26/08:30am 18.0 15.4 13.9 77 2.3 SSW 20 32 11 17 1006.8 1006.8 9.6
26/08:00am 17.7 14.3 13.6 77 2.3 S 24 33 13 18 1006.1 1006.1 9.6
26/07:30am 17.4 14.8 15.0 86 1.4 SSW 22 33 12 18 1005.6 1005.6 9.6
26/07:00am 17.7 14.8 15.1 85 1.5 S 24 32 13 17 1005.2 1005.2 9.6
26/06:30am 17.6 14.9 14.5 82 1.8 S 22 30 12 16 1004.7 1004.7 9.6
26/06:00am 17.6 15.2 14.5 82 1.8 S 20 24 11 13 1004.4 1004.4 9.6
26/05:30am 17.8 14.5 14.1 79 2.1 S 24 32 13 17 1004.2 1004.2 9.6
26/05:00am 17.9 14.2 13.8 77 2.3 S 26 37 14 20 1003.6 1003.6 9.6
26/04:30am 17.9 14.2 13.8 77 2.3 S 26 32 14 17 1003.6 1003.6 9.6
26/04:00am 17.9 15.5 15.3 85 1.5 S 22 30 12 16 1003.4 1003.4 9.6
26/03:30am 18.1 14.9 15.4 84 1.6 S 26 33 14 18 1003.2 1003.2 9.6
26/03:00am 17.8 14.3 15.4 86 1.4 S 28 35 15 19 1003.0 1003.0 9.6
26/02:30am 17.7 15.0 16.7 94 0.6 S 26 35 14 19 1003.1 1003.1 9.6
26/02:00am 17.7 14.7 16.9 95 0.5 S 28 39 15 21 1002.9 1002.9 9.6
26/01:30am 17.7 14.1 17.2 97 0.3 S 32 39 17 21 1003.1 1003.1 9.6
26/01:00am 17.9 14.8 17.4 97 0.3 S 30 37 16 20 1003.1 1003.1 9.6
26/12:30am 18.8 19.7 18.5 98 0.2 SW 11 30 6 16 1003.1 1003.1 9.4
26/12:00am 19.5 22.0 19.0 97 0.3 SW 4 4 2 2 1002.9 1002.9 9.2
 
Date/Time
CDT
Temp
°C
App
Temp
°C
Dew
Point
°C
Rel
Hum
%
Delta-T
°C
Wind Press
QNH
hPa
Press
MSL
hPa
Rain since
9am
mm
Dir  Spd
km/h
Gust
km/h
Spd
kts
Gust
kts
25/11:30pm 19.8 22.8 19.3 97 0.3 SW 2 4 1 2 1003.1 1003.1 9.0
25/11:00pm 19.6 22.1 19.1 97 0.3 SSW 4 6 2 3 1003.0 1003.0 9.0
25/10:30pm 19.5 21.4 19.0 97 0.3 SSW 7 9 4 5 1002.7 1002.7 9.0
25/10:00pm 19.2 21.0 18.7 97 0.3 SSW 7 9 4 5 1002.1 1002.1 9.0
25/09:30pm 19.3 20.3 18.6 96 0.4 S 11 15 6 8 1001.5 1001.5 9.0
25/09:00pm 19.4 20.0 18.7 96 0.4 S 13 19 7 10 1001.1 1001.1 9.0
25/08:30pm 19.5 19.8 18.7 95 0.5 S 15 19 8 10 1000.7 1000.7 9.0
25/08:00pm 19.5 19.3 18.5 94 0.6 S 17 24 9 13 1000.5 1000.5 9.0
25/07:30pm 19.8 19.0 18.5 92 0.8 S 20 28 11 15 1000.2 1000.2 9.0
25/07:00pm 20.0 17.7 18.5 91 0.9 S 28 33 15 18 999.9 999.9 9.0
25/06:30pm 20.3 18.7 19.1 93 0.8 S 26 33 14 18 1000.1 1000.1 9.0
25/06:00pm 20.9 20.1 19.2 90 1.1 SSE 22 28 12 15 999.8 999.8 9.0
25/05:30pm 20.8 19.7 19.5 92 0.8 SSE 24 30 13 16 999.7 999.7 9.0
25/05:00pm 20.9 20.5 20.1 95 0.5 S 22 28 12 15 999.5 999.5 9.0
25/04:30pm 20.4 20.5 19.9 97 0.3 S 19 22 10 12 999.5 999.5 9.0
25/04:00pm 20.2 20.1 19.9 98 0.2 S 20 26 11 14 999.5 999.5 9.0

Other formats

Comma delimited format used in spreadsheet applications
http://www.bom.gov.au/fwo/IDS60801/IDS60801.94809.axf

JavaScript Object Notation format (JSON) in row-major order
http://www.bom.gov.au/fwo/IDS60801/IDS60801.94809.json

Data quality

Most of these data are generated automatically and are frequently updated. Quality checks on data are not normally performed. It is possible for incorrect values to appear. Refer to information at About Latest Weather Observations and please check the disclaimer before using these data.